Kitsissut

KL  EN  DA
ASIAQ
Weather Now GREENLAND SURVEY
Updated [WGT/WGST] Temperature [°C] Wind [m/s] Air pressure [hPa] Relative humidity [%] Precipitation [mm]
Present Wind chill Speed Max
26.09 20:00-2,4-8,96,7 ⇙8,2100889n/a
26.09 19:00-1,9-8,47,2 ⇙8,8100885n/a
26.09 18:00-1,3-7,26,2 ⇐8,8100871n/a
26.09 17:00-0,8-7,48,2 ⇐9,3100862n/a
26.09 16:00-0,9-8,510,8 ⇐12,9100861n/a
26.09 15:00-0,9-7,88,8 ⇐11,8100860n/a
26.09 14:00-1,0-7,78,2 ⇐9,3100863n/a
26.09 13:00-1,0-8,19,3 ⇖13,4100962n/a
26.09 12:00-0,8-8,611,8 ⇖14,4100869n/a
26.09 11:00-0,8-8,812,4 ⇖14,4100874n/a
26.09 10:00-0,5-8,211,8 ⇖14,9100874n/a
26.09 09:00-0,5-8,412,4 ⇖18,5100869n/a
26.09 08:00-0,3-8,112,4 ⇖18,0100767n/a
26.09 07:000,1-7,311,3 ⇖14,9100773n/a
26.09 06:000,2-6,910,3 ⇖14,9100875n/a
26.09 05:000,3-6,49,3 ⇖12,4100884n/a
26.09 04:00-0,8-3,52,1 ⇖2,6100984n/a
26.09 03:00-1,00,00,5 ⇗1,0100980n/a
26.09 02:00-1,3-4,72,6 ⇘3,6100994n/a
26.09 01:00-1,3-5,63,6 ⇘4,6101096n/a
26.09 00:00-0,3-5,35,1 ⇙6,7101186n/a
25.09 23:00-1,0-6,25,1 ⇓6,2101191n/a
25.09 22:00-1,4-7,36,2 ⇘7,7101293n/a
25.09 21:00-1,7-8,27,2 ⇘8,8101393n/a
25.09 20:00-2,2-9,38,2 ⇓10,8101398n/a
Position: (76.733333,-73.120833)

[Back]